VECC/CCU METAR and TAF weather

Enter ICAO airport designator
Station Type Date Time Source
VECC METAR 2019/04/24 16:30 UTC NOAA

VECC 241630Z 18008KT 4000 HZ FEW020 30/22 Q1008 NOSIG


Station Type Date Time Source
VECC Decoded METAR 2019/04/24 16:30 UTC NOAA

Calcutta / Dum Dum, India (VECC) 22-39N 088-27E 6M
Apr 24, 2019 - 12:30 PM EDT / 2019.04.24 1630 UTC
Wind: from the S (180 degrees) at 9 MPH (8 KT):0
Visibility: 2 mile(s):0
Sky conditions: mostly clear
Weather: haze
Temperature: 86 F (30 C)
Heat index: 91.8 F (33.2 C):1
Dew Point: 71 F (22 C)
Relative Humidity: 62%
Pressure (altimeter): 29.77 in. Hg (1008 hPa)
ob: VECC 241630Z 18008KT 4000 HZ FEW020 30/22 Q1008 NOSIG
cycle: 16

Station Type Date Time Source
VECC TAF 2019/04/24 06:39 UTC NOAA

TAF VECC 240500Z 2406/2512 16005KT 5000 HZ FEW020 PROB40
TEMPO 2412/2416 30015G25KT 2000 TSRA SCT015 FEW025CB OVC090
BECMG 2417/2419 3000 HZ NSC
BECMG 2503/2505 5000 HZ

Example: see airport list